sensor_id;sensor_type;location;lat;lon;timestamp;P1;durP1;ratioP1;P2;durP2;ratioP2
7957;SDS011;4024;52.172;5.378;2023-08-30T00:00:40;6.00;;;4.63;;
7957;SDS011;4024;52.172;5.378;2023-08-30T00:03:06;5.00;;;4.50;;
7957;SDS011;4024;52.172;5.378;2023-08-30T00:05:32;5.60;;;4.50;;
7957;SDS011;4024;52.172;5.378;2023-08-30T00:07:58;6.30;;;4.90;;
7957;SDS011;4024;52.172;5.378;2023-08-30T00:10:23;6.53;;;4.83;;
7957;SDS011;4024;52.172;5.378;2023-08-30T00:12:49;5.73;;;5.07;;
7957;SDS011;4024;52.172;5.378;2023-08-30T00:15:15;5.57;;;4.87;;
7957;SDS011;4024;52.172;5.378;2023-08-30T00:17:40;5.87;;;5.27;;
7957;SDS011;4024;52.172;5.378;2023-08-30T00:20:06;8.20;;;5.30;;
7957;SDS011;4024;52.172;5.378;2023-08-30T00:22:33;6.13;;;5.40;;
7957;SDS011;4024;52.172;5.378;2023-08-30T00:24:59;6.17;;;5.57;;
7957;SDS011;4024;52.172;5.378;2023-08-30T00:27:25;5.77;;;5.20;;
7957;SDS011;4024;52.172;5.378;2023-08-30T00:29:50;6.60;;;6.00;;
7957;SDS011;4024;52.172;5.378;2023-08-30T00:32:16;6.80;;;6.00;;
7957;SDS011;4024;52.172;5.378;2023-08-30T00:34:42;5.67;;;5.17;;
7957;SDS011;4024;52.172;5.378;2023-08-30T00:37:07;6.23;;;5.63;;
7957;SDS011;4024;52.172;5.378;2023-08-30T00:39:33;5.73;;;4.90;;
7957;SDS011;4024;52.172;5.378;2023-08-30T00:42:02;5.97;;;5.37;;
7957;SDS011;4024;52.172;5.378;2023-08-30T00:44:30;6.53;;;5.93;;
7957;SDS011;4024;52.172;5.378;2023-08-30T00:46:57;7.47;;;5.47;;
7957;SDS011;4024;52.172;5.378;2023-08-30T00:49:23;9.17;;;5.63;;
7957;SDS011;4024;52.172;5.378;2023-08-30T00:51:49;6.83;;;6.03;;
7957;SDS011;4024;52.172;5.378;2023-08-30T00:54:15;6.00;;;5.40;;
7957;SDS011;4024;52.172;5.378;2023-08-30T00:56:41;7.03;;;6.33;;
7957;SDS011;4024;52.172;5.378;2023-08-30T00:59:06;6.50;;;5.80;;
7957;SDS011;4024;52.172;5.378;2023-08-30T01:01:32;6.37;;;5.77;;
7957;SDS011;4024;52.172;5.378;2023-08-30T01:03:58;5.57;;;5.07;;
7957;SDS011;4024;52.172;5.378;2023-08-30T01:06:23;6.43;;;5.50;;
7957;SDS011;4024;52.172;5.378;2023-08-30T01:08:49;5.83;;;5.23;;
7957;SDS011;4024;52.172;5.378;2023-08-30T01:11:19;9.20;;;5.90;;
7957;SDS011;4024;52.172;5.378;2023-08-30T01:13:56;6.77;;;6.10;;
7957;SDS011;4024;52.172;5.378;2023-08-30T01:16:25;6.43;;;5.83;;
7957;SDS011;4024;52.172;5.378;2023-08-30T01:18:53;7.30;;;6.10;;
7957;SDS011;4024;52.172;5.378;2023-08-30T01:21:23;8.40;;;6.33;;
7957;SDS011;4024;52.172;5.378;2023-08-30T01:24:02;6.57;;;5.87;;
7957;SDS011;4024;52.172;5.378;2023-08-30T01:29:03;7.33;;;5.60;;
7957;SDS011;4024;52.172;5.378;2023-08-30T01:31:30;8.23;;;6.50;;
7957;SDS011;4024;52.172;5.378;2023-08-30T01:33:58;8.77;;;6.60;;
7957;SDS011;4024;52.172;5.378;2023-08-30T01:36:27;7.33;;;6.50;;
7957;SDS011;4024;52.172;5.378;2023-08-30T01:38:54;7.93;;;7.00;;
7957;SDS011;4024;52.172;5.378;2023-08-30T01:41:20;7.93;;;7.13;;
7957;SDS011;4024;52.172;5.378;2023-08-30T01:43:48;7.63;;;6.67;;
7957;SDS011;4024;52.172;5.378;2023-08-30T01:46:17;8.77;;;7.03;;
7957;SDS011;4024;52.172;5.378;2023-08-30T01:48:44;8.70;;;6.67;;
7957;SDS011;4024;52.172;5.378;2023-08-30T01:51:12;9.73;;;7.20;;
7957;SDS011;4024;52.172;5.378;2023-08-30T01:53:39;7.27;;;6.57;;
7957;SDS011;4024;52.172;5.378;2023-08-30T01:56:05;8.60;;;7.40;;
7957;SDS011;4024;52.172;5.378;2023-08-30T01:58:30;8.07;;;6.23;;
7957;SDS011;4024;52.172;5.378;2023-08-30T02:00:56;7.20;;;6.37;;
7957;SDS011;4024;52.172;5.378;2023-08-30T02:03:22;8.30;;;7.00;;
7957;SDS011;4024;52.172;5.378;2023-08-30T02:08:20;9.13;;;7.70;;
7957;SDS011;4024;52.172;5.378;2023-08-30T02:10:52;8.47;;;7.07;;
7957;SDS011;4024;52.172;5.378;2023-08-30T02:13:25;8.63;;;7.17;;
7957;SDS011;4024;52.172;5.378;2023-08-30T02:15:55;7.60;;;6.80;;
7957;SDS011;4024;52.172;5.378;2023-08-30T02:18:23;9.77;;;7.97;;
7957;SDS011;4024;52.172;5.378;2023-08-30T02:20:51;8.80;;;7.23;;
7957;SDS011;4024;52.172;5.378;2023-08-30T02:23:17;9.90;;;8.00;;
7957;SDS011;4024;52.172;5.378;2023-08-30T02:25:42;10.07;;;8.87;;
7957;SDS011;4024;52.172;5.378;2023-08-30T02:28:09;10.23;;;8.70;;
7957;SDS011;4024;52.172;5.378;2023-08-30T02:30:35;9.40;;;8.40;;
7957;SDS011;4024;52.172;5.378;2023-08-30T02:33:01;9.80;;;8.57;;
7957;SDS011;4024;52.172;5.378;2023-08-30T02:35:26;8.87;;;7.93;;
7957;SDS011;4024;52.172;5.378;2023-08-30T02:37:52;11.50;;;8.47;;
7957;SDS011;4024;52.172;5.378;2023-08-30T02:40:17;10.40;;;8.40;;
7957;SDS011;4024;52.172;5.378;2023-08-30T02:42:43;8.77;;;7.87;;
7957;SDS011;4024;52.172;5.378;2023-08-30T02:45:09;10.73;;;8.50;;
7957;SDS011;4024;52.172;5.378;2023-08-30T02:47:34;10.53;;;8.90;;
7957;SDS011;4024;52.172;5.378;2023-08-30T02:50:00;12.63;;;9.03;;
7957;SDS011;4024;52.172;5.378;2023-08-30T02:52:26;10.30;;;9.20;;
7957;SDS011;4024;52.172;5.378;2023-08-30T02:54:51;10.13;;;8.87;;
7957;SDS011;4024;52.172;5.378;2023-08-30T02:57:17;10.03;;;9.03;;
7957;SDS011;4024;52.172;5.378;2023-08-30T02:59:42;11.13;;;9.43;;
7957;SDS011;4024;52.172;5.378;2023-08-30T03:02:08;11.70;;;8.80;;
7957;SDS011;4024;52.172;5.378;2023-08-30T03:04:33;13.53;;;9.37;;
7957;SDS011;4024;52.172;5.378;2023-08-30T03:06:59;10.30;;;9.07;;
7957;SDS011;4024;52.172;5.378;2023-08-30T03:09:25;11.90;;;10.20;;
7957;SDS011;4024;52.172;5.378;2023-08-30T03:11:50;11.57;;;9.10;;
7957;SDS011;4024;52.172;5.378;2023-08-30T03:14:16;11.83;;;9.77;;
7957;SDS011;4024;52.172;5.378;2023-08-30T03:16:41;10.77;;;9.63;;
7957;SDS011;4024;52.172;5.378;2023-08-30T03:19:09;11.80;;;9.83;;
7957;SDS011;4024;52.172;5.378;2023-08-30T03:21:35;11.27;;;9.53;;
7957;SDS011;4024;52.172;5.378;2023-08-30T03:24:00;12.03;;;10.10;;
7957;SDS011;4024;52.172;5.378;2023-08-30T03:26:26;11.57;;;9.97;;
7957;SDS011;4024;52.172;5.378;2023-08-30T03:28:53;12.90;;;9.73;;
7957;SDS011;4024;52.172;5.378;2023-08-30T03:31:19;11.13;;;9.73;;
7957;SDS011;4024;52.172;5.378;2023-08-30T03:33:46;12.37;;;10.40;;
7957;SDS011;4024;52.172;5.378;2023-08-30T03:36:14;11.80;;;10.30;;
7957;SDS011;4024;52.172;5.378;2023-08-30T03:38:41;12.63;;;9.97;;
7957;SDS011;4024;52.172;5.378;2023-08-30T03:41:07;12.27;;;10.97;;
7957;SDS011;4024;52.172;5.378;2023-08-30T03:43:34;12.10;;;10.40;;
7957;SDS011;4024;52.172;5.378;2023-08-30T03:45:59;12.87;;;11.03;;
7957;SDS011;4024;52.172;5.378;2023-08-30T03:48:26;12.63;;;10.33;;
7957;SDS011;4024;52.172;5.378;2023-08-30T03:50:52;14.60;;;11.27;;
7957;SDS011;4024;52.172;5.378;2023-08-30T03:53:19;13.43;;;10.73;;
7957;SDS011;4024;52.172;5.378;2023-08-30T03:55:44;13.37;;;10.20;;
7957;SDS011;4024;52.172;5.378;2023-08-30T03:58:10;13.80;;;10.17;;
7957;SDS011;4024;52.172;5.378;2023-08-30T04:00:36;11.60;;;10.27;;
7957;SDS011;4024;52.172;5.378;2023-08-30T04:03:02;12.40;;;9.90;;
7957;SDS011;4024;52.172;5.378;2023-08-30T04:05:35;15.03;;;11.00;;
7957;SDS011;4024;52.172;5.378;2023-08-30T04:08:02;12.33;;;10.50;;
7957;SDS011;4024;52.172;5.378;2023-08-30T04:10:28;12.80;;;10.27;;
7957;SDS011;4024;52.172;5.378;2023-08-30T04:12:54;16.00;;;10.67;;
7957;SDS011;4024;52.172;5.378;2023-08-30T04:15:19;13.67;;;10.37;;
7957;SDS011;4024;52.172;5.378;2023-08-30T04:17:45;13.33;;;10.93;;
7957;SDS011;4024;52.172;5.378;2023-08-30T04:20:11;14.63;;;10.50;;
7957;SDS011;4024;52.172;5.378;2023-08-30T04:22:36;12.53;;;10.37;;
7957;SDS011;4024;52.172;5.378;2023-08-30T04:25:03;14.13;;;10.60;;
7957;SDS011;4024;52.172;5.378;2023-08-30T04:27:29;14.90;;;10.83;;
7957;SDS011;4024;52.172;5.378;2023-08-30T04:29:54;15.17;;;11.03;;
7957;SDS011;4024;52.172;5.378;2023-08-30T04:32:20;12.30;;;10.80;;
7957;SDS011;4024;52.172;5.378;2023-08-30T04:34:45;13.27;;;10.10;;
7957;SDS011;4024;52.172;5.378;2023-08-30T04:37:11;12.93;;;10.17;;
7957;SDS011;4024;52.172;5.378;2023-08-30T04:39:36;13.27;;;10.03;;
7957;SDS011;4024;52.172;5.378;2023-08-30T04:42:02;11.47;;;10.03;;
7957;SDS011;4024;52.172;5.378;2023-08-30T04:44:28;11.03;;;9.70;;
7957;SDS011;4024;52.172;5.378;2023-08-30T04:46:54;12.13;;;10.23;;
7957;SDS011;4024;52.172;5.378;2023-08-30T04:49:20;13.30;;;10.57;;
7957;SDS011;4024;52.172;5.378;2023-08-30T04:51:46;13.73;;;10.67;;
7957;SDS011;4024;52.172;5.378;2023-08-30T04:54:12;12.47;;;10.37;;
7957;SDS011;4024;52.172;5.378;2023-08-30T04:56:39;11.60;;;10.20;;
7957;SDS011;4024;52.172;5.378;2023-08-30T04:59:04;12.27;;;10.47;;
7957;SDS011;4024;52.172;5.378;2023-08-30T05:01:30;13.30;;;10.17;;
7957;SDS011;4024;52.172;5.378;2023-08-30T05:03:56;12.77;;;10.47;;
7957;SDS011;4024;52.172;5.378;2023-08-30T05:06:21;13.43;;;10.23;;
7957;SDS011;4024;52.172;5.378;2023-08-30T05:08:47;11.33;;;9.67;;
7957;SDS011;4024;52.172;5.378;2023-08-30T05:11:12;11.57;;;9.53;;
7957;SDS011;4024;52.172;5.378;2023-08-30T05:13:38;12.40;;;10.07;;
7957;SDS011;4024;52.172;5.378;2023-08-30T05:16:04;12.70;;;10.27;;
7957;SDS011;4024;52.172;5.378;2023-08-30T05:18:30;11.37;;;9.83;;
7957;SDS011;4024;52.172;5.378;2023-08-30T05:20:55;14.63;;;10.17;;
7957;SDS011;4024;52.172;5.378;2023-08-30T05:23:21;11.07;;;9.70;;
7957;SDS011;4024;52.172;5.378;2023-08-30T05:25:46;11.93;;;10.63;;
7957;SDS011;4024;52.172;5.378;2023-08-30T05:28:12;14.17;;;10.73;;
7957;SDS011;4024;52.172;5.378;2023-08-30T05:30:40;13.73;;;10.23;;
7957;SDS011;4024;52.172;5.378;2023-08-30T05:33:07;11.70;;;9.67;;
7957;SDS011;4024;52.172;5.378;2023-08-30T05:35:33;15.27;;;10.93;;
7957;SDS011;4024;52.172;5.378;2023-08-30T05:37:58;12.20;;;10.00;;
7957;SDS011;4024;52.172;5.378;2023-08-30T05:40:24;14.23;;;11.13;;
7957;SDS011;4024;52.172;5.378;2023-08-30T05:42:50;13.57;;;10.00;;
7957;SDS011;4024;52.172;5.378;2023-08-30T05:45:16;12.83;;;10.33;;
7957;SDS011;4024;52.172;5.378;2023-08-30T05:47:41;12.90;;;10.53;;
7957;SDS011;4024;52.172;5.378;2023-08-30T05:50:07;14.07;;;10.03;;
7957;SDS011;4024;52.172;5.378;2023-08-30T05:52:33;11.87;;;10.13;;
7957;SDS011;4024;52.172;5.378;2023-08-30T05:54:59;14.60;;;10.10;;
7957;SDS011;4024;52.172;5.378;2023-08-30T05:57:24;11.43;;;9.77;;
7957;SDS011;4024;52.172;5.378;2023-08-30T05:59:50;12.43;;;9.70;;
7957;SDS011;4024;52.172;5.378;2023-08-30T06:02:16;13.00;;;10.93;;
7957;SDS011;4024;52.172;5.378;2023-08-30T06:04:42;13.77;;;10.20;;
7957;SDS011;4024;52.172;5.378;2023-08-30T06:07:07;14.03;;;9.10;;
7957;SDS011;4024;52.172;5.378;2023-08-30T06:09:33;10.97;;;9.50;;
7957;SDS011;4024;52.172;5.378;2023-08-30T06:11:59;11.23;;;9.47;;
7957;SDS011;4024;52.172;5.378;2023-08-30T06:14:24;9.57;;;8.47;;
7957;SDS011;4024;52.172;5.378;2023-08-30T06:16:51;12.33;;;9.63;;
7957;SDS011;4024;52.172;5.378;2023-08-30T06:19:16;11.63;;;9.17;;
7957;SDS011;4024;52.172;5.378;2023-08-30T06:21:42;11.03;;;9.17;;
7957;SDS011;4024;52.172;5.378;2023-08-30T06:24:07;12.37;;;9.60;;
7957;SDS011;4024;52.172;5.378;2023-08-30T06:26:33;13.43;;;9.57;;
7957;SDS011;4024;52.172;5.378;2023-08-30T06:28:58;12.43;;;9.20;;
7957;SDS011;4024;52.172;5.378;2023-08-30T06:31:24;11.50;;;9.40;;
7957;SDS011;4024;52.172;5.378;2023-08-30T06:33:51;11.93;;;10.00;;
7957;SDS011;4024;52.172;5.378;2023-08-30T06:36:16;11.27;;;10.00;;
7957;SDS011;4024;52.172;5.378;2023-08-30T06:38:43;15.67;;;10.43;;
7957;SDS011;4024;52.172;5.378;2023-08-30T06:41:09;12.13;;;9.33;;
7957;SDS011;4024;52.172;5.378;2023-08-30T06:43:34;14.67;;;10.17;;
7957;SDS011;4024;52.172;5.378;2023-08-30T06:46:00;15.07;;;10.47;;
7957;SDS011;4024;52.172;5.378;2023-08-30T06:48:26;11.30;;;9.93;;
7957;SDS011;4024;52.172;5.378;2023-08-30T06:50:51;13.53;;;10.47;;
7957;SDS011;4024;52.172;5.378;2023-08-30T06:53:17;15.97;;;11.17;;
7957;SDS011;4024;52.172;5.378;2023-08-30T06:55:42;13.80;;;10.57;;
7957;SDS011;4024;52.172;5.378;2023-08-30T06:58:08;11.37;;;10.27;;
7957;SDS011;4024;52.172;5.378;2023-08-30T07:00:33;14.87;;;10.53;;
7957;SDS011;4024;52.172;5.378;2023-08-30T07:02:59;10.87;;;9.47;;
7957;SDS011;4024;52.172;5.378;2023-08-30T07:05:25;13.90;;;10.17;;
7957;SDS011;4024;52.172;5.378;2023-08-30T07:07:50;12.73;;;10.80;;
7957;SDS011;4024;52.172;5.378;2023-08-30T07:10:16;13.83;;;11.10;;
7957;SDS011;4024;52.172;5.378;2023-08-30T07:12:42;13.00;;;10.53;;
7957;SDS011;4024;52.172;5.378;2023-08-30T07:15:07;13.57;;;10.47;;
7957;SDS011;4024;52.172;5.378;2023-08-30T07:17:33;14.77;;;11.17;;
7957;SDS011;4024;52.172;5.378;2023-08-30T07:19:59;12.20;;;10.63;;
7957;SDS011;4024;52.172;5.378;2023-08-30T07:22:24;11.97;;;10.43;;
7957;SDS011;4024;52.172;5.378;2023-08-30T07:24:50;11.47;;;10.20;;
7957;SDS011;4024;52.172;5.378;2023-08-30T07:27:16;13.20;;;10.73;;
7957;SDS011;4024;52.172;5.378;2023-08-30T07:29:41;13.63;;;11.13;;
7957;SDS011;4024;52.172;5.378;2023-08-30T07:32:08;16.17;;;11.03;;
7957;SDS011;4024;52.172;5.378;2023-08-30T07:34:34;13.00;;;11.37;;
7957;SDS011;4024;52.172;5.378;2023-08-30T07:37:00;15.50;;;10.83;;
7957;SDS011;4024;52.172;5.378;2023-08-30T07:39:26;14.10;;;11.50;;
7957;SDS011;4024;52.172;5.378;2023-08-30T07:41:51;12.43;;;11.10;;
7957;SDS011;4024;52.172;5.378;2023-08-30T07:44:17;14.00;;;11.03;;
7957;SDS011;4024;52.172;5.378;2023-08-30T07:46:44;11.47;;;10.10;;
7957;SDS011;4024;52.172;5.378;2023-08-30T07:49:10;11.10;;;9.97;;
7957;SDS011;4024;52.172;5.378;2023-08-30T07:51:37;11.27;;;9.50;;
7957;SDS011;4024;52.172;5.378;2023-08-30T07:54:02;11.67;;;9.77;;
7957;SDS011;4024;52.172;5.378;2023-08-30T07:56:28;11.43;;;10.33;;
7957;SDS011;4024;52.172;5.378;2023-08-30T07:58:54;11.83;;;10.13;;
7957;SDS011;4024;52.172;5.378;2023-08-30T08:01:19;11.33;;;9.87;;
7957;SDS011;4024;52.172;5.378;2023-08-30T08:03:45;15.67;;;10.37;;
7957;SDS011;4024;52.172;5.378;2023-08-30T08:06:12;11.63;;;10.43;;
7957;SDS011;4024;52.172;5.378;2023-08-30T08:08:37;10.30;;;9.20;;
7957;SDS011;4024;52.172;5.378;2023-08-30T08:11:03;10.27;;;8.87;;
7957;SDS011;4024;52.172;5.378;2023-08-30T08:13:28;10.63;;;9.13;;
7957;SDS011;4024;52.172;5.378;2023-08-30T08:15:57;9.13;;;8.10;;
7957;SDS011;4024;52.172;5.378;2023-08-30T08:18:22;10.73;;;8.60;;
7957;SDS011;4024;52.172;5.378;2023-08-30T08:20:48;11.93;;;8.83;;
7957;SDS011;4024;52.172;5.378;2023-08-30T08:23:14;10.67;;;9.10;;
7957;SDS011;4024;52.172;5.378;2023-08-30T08:25:39;8.80;;;7.90;;
7957;SDS011;4024;52.172;5.378;2023-08-30T08:28:05;9.30;;;8.40;;
7957;SDS011;4024;52.172;5.378;2023-08-30T08:30:30;9.93;;;7.70;;
7957;SDS011;4024;52.172;5.378;2023-08-30T08:32:57;8.30;;;7.50;;
7957;SDS011;4024;52.172;5.378;2023-08-30T08:35:22;8.30;;;7.50;;
7957;SDS011;4024;52.172;5.378;2023-08-30T08:37:48;9.57;;;7.03;;
7957;SDS011;4024;52.172;5.378;2023-08-30T08:40:14;8.37;;;7.00;;
7957;SDS011;4024;52.172;5.378;2023-08-30T08:42:39;7.77;;;6.97;;
7957;SDS011;4024;52.172;5.378;2023-08-30T08:45:07;9.13;;;6.77;;
7957;SDS011;4024;52.172;5.378;2023-08-30T08:47:35;7.67;;;6.70;;
7957;SDS011;4024;52.172;5.378;2023-08-30T08:50:01;9.33;;;6.90;;
7957;SDS011;4024;52.172;5.378;2023-08-30T08:52:28;7.90;;;7.10;;
7957;SDS011;4024;52.172;5.378;2023-08-30T08:54:54;9.20;;;7.03;;
7957;SDS011;4024;52.172;5.378;2023-08-30T08:57:20;8.10;;;6.77;;
7957;SDS011;4024;52.172;5.378;2023-08-30T08:59:46;7.57;;;6.80;;
7957;SDS011;4024;52.172;5.378;2023-08-30T09:02:13;7.83;;;6.50;;
7957;SDS011;4024;52.172;5.378;2023-08-30T09:04:39;9.43;;;6.73;;
7957;SDS011;4024;52.172;5.378;2023-08-30T09:07:05;7.47;;;6.57;;
7957;SDS011;4024;52.172;5.378;2023-08-30T09:09:31;8.03;;;6.73;;
7957;SDS011;4024;52.172;5.378;2023-08-30T09:11:57;7.67;;;6.33;;
7957;SDS011;4024;52.172;5.378;2023-08-30T09:14:23;7.43;;;6.50;;
7957;SDS011;4024;52.172;5.378;2023-08-30T09:16:55;7.67;;;6.53;;
7957;SDS011;4024;52.172;5.378;2023-08-30T09:19:22;6.50;;;5.90;;
7957;SDS011;4024;52.172;5.378;2023-08-30T09:21:53;6.90;;;6.10;;
7957;SDS011;4024;52.172;5.378;2023-08-30T09:24:20;7.50;;;6.47;;
7957;SDS011;4024;52.172;5.378;2023-08-30T09:26:50;7.53;;;6.73;;
7957;SDS011;4024;52.172;5.378;2023-08-30T09:29:18;7.07;;;6.30;;
7957;SDS011;4024;52.172;5.378;2023-08-30T09:31:44;7.60;;;6.20;;
7957;SDS011;4024;52.172;5.378;2023-08-30T09:34:10;7.10;;;6.40;;
7957;SDS011;4024;52.172;5.378;2023-08-30T09:36:37;6.10;;;5.50;;
7957;SDS011;4024;52.172;5.378;2023-08-30T09:39:09;6.57;;;5.97;;
7957;SDS011;4024;52.172;5.378;2023-08-30T09:41:36;6.80;;;6.10;;
7957;SDS011;4024;52.172;5.378;2023-08-30T09:44:06;6.70;;;5.97;;
7957;SDS011;4024;52.172;5.378;2023-08-30T09:46:42;6.93;;;6.23;;
7957;SDS011;4024;52.172;5.378;2023-08-30T09:49:09;7.37;;;6.57;;
7957;SDS011;4024;52.172;5.378;2023-08-30T09:51:35;7.90;;;7.10;;
7957;SDS011;4024;52.172;5.378;2023-08-30T09:54:06;8.00;;;7.23;;
7957;SDS011;4024;52.172;5.378;2023-08-30T09:56:43;8.17;;;7.37;;
7957;SDS011;4024;52.172;5.378;2023-08-30T09:59:10;8.10;;;7.30;;
7957;SDS011;4024;52.172;5.378;2023-08-30T10:01:38;8.47;;;7.63;;
7957;SDS011;4024;52.172;5.378;2023-08-30T10:04:04;8.50;;;7.60;;
7957;SDS011;4024;52.172;5.378;2023-08-30T10:06:32;9.63;;;8.53;;
7957;SDS011;4024;52.172;5.378;2023-08-30T10:09:00;10.20;;;8.97;;
7957;SDS011;4024;52.172;5.378;2023-08-30T10:11:28;9.83;;;8.83;;
7957;SDS011;4024;52.172;5.378;2023-08-30T10:13:57;10.67;;;8.60;;
7957;SDS011;4024;52.172;5.378;2023-08-30T10:16:24;10.93;;;9.73;;
7957;SDS011;4024;52.172;5.378;2023-08-30T10:18:54;10.47;;;9.47;;
7957;SDS011;4024;52.172;5.378;2023-08-30T10:21:27;10.97;;;9.87;;
7957;SDS011;4024;52.172;5.378;2023-08-30T10:23:55;11.17;;;9.97;;
7957;SDS011;4024;52.172;5.378;2023-08-30T10:26:24;10.80;;;9.70;;
7957;SDS011;4024;52.172;5.378;2023-08-30T10:28:54;9.63;;;8.83;;
7957;SDS011;4024;52.172;5.378;2023-08-30T10:31:21;11.20;;;10.07;;
7957;SDS011;4024;52.172;5.378;2023-08-30T10:33:48;11.00;;;9.77;;
7957;SDS011;4024;52.172;5.378;2023-08-30T10:36:23;10.00;;;9.10;;
7957;SDS011;4024;52.172;5.378;2023-08-30T10:38:52;9.70;;;8.80;;
7957;SDS011;4024;52.172;5.378;2023-08-30T10:41:23;10.27;;;9.37;;
7957;SDS011;4024;52.172;5.378;2023-08-30T10:43:52;9.50;;;8.60;;
7957;SDS011;4024;52.172;5.378;2023-08-30T10:46:35;8.80;;;8.00;;
7957;SDS011;4024;52.172;5.378;2023-08-30T10:49:08;9.33;;;7.30;;
7957;SDS011;4024;52.172;5.378;2023-08-30T10:51:35;8.77;;;6.17;;
7957;SDS011;4024;52.172;5.378;2023-08-30T10:54:09;7.23;;;5.67;;
7957;SDS011;4024;52.172;5.378;2023-08-30T10:56:45;6.30;;;4.80;;
7957;SDS011;4024;52.172;5.378;2023-08-30T10:59:21;10.37;;;5.23;;
7957;SDS011;4024;52.172;5.378;2023-08-30T11:01:48;5.60;;;4.90;;
7957;SDS011;4024;52.172;5.378;2023-08-30T11:04:17;6.60;;;4.93;;
7957;SDS011;4024;52.172;5.378;2023-08-30T11:06:43;6.37;;;5.07;;
7957;SDS011;4024;52.172;5.378;2023-08-30T11:09:12;9.97;;;4.97;;
7957;SDS011;4024;52.172;5.378;2023-08-30T11:11:39;10.30;;;4.23;;
7957;SDS011;4024;52.172;5.378;2023-08-30T11:14:08;8.00;;;4.57;;
7957;SDS011;4024;52.172;5.378;2023-08-30T11:16:34;5.90;;;4.27;;
7957;SDS011;4024;52.172;5.378;2023-08-30T11:19:01;8.00;;;4.10;;
7957;SDS011;4024;52.172;5.378;2023-08-30T11:21:28;7.73;;;4.17;;
7957;SDS011;4024;52.172;5.378;2023-08-30T11:23:56;8.33;;;4.00;;
7957;SDS011;4024;52.172;5.378;2023-08-30T11:26:21;7.87;;;4.30;;
7957;SDS011;4024;52.172;5.378;2023-08-30T11:28:47;6.00;;;3.70;;
7957;SDS011;4024;52.172;5.378;2023-08-30T11:31:26;6.77;;;3.90;;
7957;SDS011;4024;52.172;5.378;2023-08-30T11:36:23;6.93;;;3.93;;
7957;SDS011;4024;52.172;5.378;2023-08-30T11:38:53;7.23;;;3.70;;
7957;SDS011;4024;52.172;5.378;2023-08-30T11:41:25;5.60;;;3.40;;
7957;SDS011;4024;52.172;5.378;2023-08-30T11:43:51;5.90;;;3.40;;
7957;SDS011;4024;52.172;5.378;2023-08-30T11:46:17;6.17;;;3.80;;
7957;SDS011;4024;52.172;5.378;2023-08-30T11:48:44;8.27;;;3.80;;
7957;SDS011;4024;52.172;5.378;2023-08-30T11:51:11;6.53;;;3.97;;
7957;SDS011;4024;52.172;5.378;2023-08-30T11:53:37;13.33;;;4.17;;
7957;SDS011;4024;52.172;5.378;2023-08-30T11:56:04;7.73;;;4.50;;
7957;SDS011;4024;52.172;5.378;2023-08-30T11:58:34;6.50;;;4.07;;
7957;SDS011;4024;52.172;5.378;2023-08-30T12:01:01;10.23;;;4.23;;
7957;SDS011;4024;52.172;5.378;2023-08-30T12:03:27;6.30;;;3.33;;
7957;SDS011;4024;52.172;5.378;2023-08-30T12:05:56;8.90;;;3.70;;
7957;SDS011;4024;52.172;5.378;2023-08-30T12:08:23;7.87;;;3.83;;
7957;SDS011;4024;52.172;5.378;2023-08-30T12:10:56;5.50;;;3.40;;
7957;SDS011;4024;52.172;5.378;2023-08-30T12:13:26;8.60;;;3.40;;
7957;SDS011;4024;52.172;5.378;2023-08-30T12:15:57;7.17;;;3.20;;
7957;SDS011;4024;52.172;5.378;2023-08-30T12:18:24;7.87;;;3.77;;
7957;SDS011;4024;52.172;5.378;2023-08-30T12:20:54;10.37;;;3.57;;
7957;SDS011;4024;52.172;5.378;2023-08-30T12:23:21;7.50;;;3.30;;
7957;SDS011;4024;52.172;5.378;2023-08-30T12:28:29;6.73;;;3.40;;
7957;SDS011;4024;52.172;5.378;2023-08-30T12:30:55;7.63;;;3.00;;
7957;SDS011;4024;52.172;5.378;2023-08-30T12:33:21;9.37;;;3.33;;
7957;SDS011;4024;52.172;5.378;2023-08-30T12:35:47;6.87;;;3.10;;
7957;SDS011;4024;52.172;5.378;2023-08-30T12:38:13;5.67;;;3.13;;
7957;SDS011;4024;52.172;5.378;2023-08-30T12:40:49;10.60;;;3.67;;
7957;SDS011;4024;52.172;5.378;2023-08-30T12:43:17;5.03;;;2.93;;
7957;SDS011;4024;52.172;5.378;2023-08-30T12:45:44;8.83;;;3.40;;
7957;SDS011;4024;52.172;5.378;2023-08-30T12:48:11;6.77;;;3.50;;
7957;SDS011;4024;52.172;5.378;2023-08-30T12:50:40;7.93;;;3.50;;
7957;SDS011;4024;52.172;5.378;2023-08-30T12:53:06;7.73;;;2.80;;
7957;SDS011;4024;52.172;5.378;2023-08-30T12:55:32;8.73;;;3.27;;
7957;SDS011;4024;52.172;5.378;2023-08-30T12:57:59;7.33;;;2.97;;
7957;SDS011;4024;52.172;5.378;2023-08-30T13:00:25;6.57;;;2.90;;
7957;SDS011;4024;52.172;5.378;2023-08-30T13:02:51;7.70;;;3.00;;
7957;SDS011;4024;52.172;5.378;2023-08-30T13:05:16;7.80;;;3.10;;
7957;SDS011;4024;52.172;5.378;2023-08-30T13:07:43;6.43;;;2.67;;
7957;SDS011;4024;52.172;5.378;2023-08-30T13:10:09;5.23;;;3.33;;
7957;SDS011;4024;52.172;5.378;2023-08-30T13:12:35;7.30;;;2.93;;
7957;SDS011;4024;52.172;5.378;2023-08-30T13:15:01;6.83;;;2.93;;
7957;SDS011;4024;52.172;5.378;2023-08-30T13:17:27;8.93;;;3.07;;
7957;SDS011;4024;52.172;5.378;2023-08-30T13:19:52;10.67;;;3.73;;
7957;SDS011;4024;52.172;5.378;2023-08-30T13:22:18;5.37;;;3.13;;
7957;SDS011;4024;52.172;5.378;2023-08-30T13:24:44;6.67;;;3.00;;
7957;SDS011;4024;52.172;5.378;2023-08-30T13:27:09;9.30;;;3.00;;
7957;SDS011;4024;52.172;5.378;2023-08-30T13:29:35;7.90;;;3.47;;
7957;SDS011;4024;52.172;5.378;2023-08-30T13:32:01;5.93;;;2.80;;
7957;SDS011;4024;52.172;5.378;2023-08-30T13:34:28;6.93;;;3.00;;
7957;SDS011;4024;52.172;5.378;2023-08-30T13:36:53;4.80;;;2.63;;
7957;SDS011;4024;52.172;5.378;2023-08-30T13:39:19;6.00;;;2.77;;
7957;SDS011;4024;52.172;5.378;2023-08-30T13:41:45;4.10;;;2.57;;
7957;SDS011;4024;52.172;5.378;2023-08-30T13:44:12;5.27;;;2.60;;
7957;SDS011;4024;52.172;5.378;2023-08-30T13:46:38;5.57;;;2.83;;
7957;SDS011;4024;52.172;5.378;2023-08-30T13:49:03;5.43;;;2.77;;
7957;SDS011;4024;52.172;5.378;2023-08-30T13:51:29;5.70;;;2.73;;
7957;SDS011;4024;52.172;5.378;2023-08-30T13:53:55;6.37;;;2.83;;
7957;SDS011;4024;52.172;5.378;2023-08-30T13:56:21;9.03;;;3.17;;
7957;SDS011;4024;52.172;5.378;2023-08-30T13:58:47;6.80;;;2.73;;
7957;SDS011;4024;52.172;5.378;2023-08-30T14:01:13;6.67;;;2.77;;
7957;SDS011;4024;52.172;5.378;2023-08-30T14:03:39;4.97;;;2.57;;
7957;SDS011;4024;52.172;5.378;2023-08-30T14:06:05;5.50;;;2.63;;
7957;SDS011;4024;52.172;5.378;2023-08-30T14:08:32;4.57;;;2.43;;
7957;SDS011;4024;52.172;5.378;2023-08-30T14:10:57;7.50;;;2.50;;
7957;SDS011;4024;52.172;5.378;2023-08-30T14:13:23;4.97;;;2.27;;
7957;SDS011;4024;52.172;5.378;2023-08-30T14:15:49;6.57;;;2.23;;
7957;SDS011;4024;52.172;5.378;2023-08-30T14:18:15;5.00;;;2.20;;
7957;SDS011;4024;52.172;5.378;2023-08-30T14:20:41;3.80;;;2.23;;
7957;SDS011;4024;52.172;5.378;2023-08-30T14:23:07;6.70;;;2.30;;
7957;SDS011;4024;52.172;5.378;2023-08-30T14:25:34;6.07;;;2.27;;
7957;SDS011;4024;52.172;5.378;2023-08-30T14:27:59;5.97;;;2.50;;
7957;SDS011;4024;52.172;5.378;2023-08-30T14:30:25;5.27;;;2.17;;
7957;SDS011;4024;52.172;5.378;2023-08-30T14:32:51;4.30;;;2.70;;
7957;SDS011;4024;52.172;5.378;2023-08-30T14:35:17;5.07;;;2.50;;
7957;SDS011;4024;52.172;5.378;2023-08-30T14:37:45;5.90;;;2.77;;
7957;SDS011;4024;52.172;5.378;2023-08-30T14:40:12;4.37;;;2.50;;
7957;SDS011;4024;52.172;5.378;2023-08-30T14:42:39;3.33;;;2.17;;
7957;SDS011;4024;52.172;5.378;2023-08-30T14:45:05;4.10;;;2.10;;
7957;SDS011;4024;52.172;5.378;2023-08-30T14:47:32;3.37;;;2.13;;
7957;SDS011;4024;52.172;5.378;2023-08-30T14:49:58;4.77;;;1.87;;
7957;SDS011;4024;52.172;5.378;2023-08-30T14:52:26;4.63;;;2.43;;
7957;SDS011;4024;52.172;5.378;2023-08-30T14:54:51;4.47;;;2.10;;
7957;SDS011;4024;52.172;5.378;2023-08-30T14:57:17;5.87;;;2.43;;
7957;SDS011;4024;52.172;5.378;2023-08-30T14:59:43;6.03;;;2.57;;
7957;SDS011;4024;52.172;5.378;2023-08-30T15:02:08;5.50;;;2.30;;
7957;SDS011;4024;52.172;5.378;2023-08-30T15:04:34;3.30;;;2.30;;
7957;SDS011;4024;52.172;5.378;2023-08-30T15:06:59;4.27;;;2.30;;
7957;SDS011;4024;52.172;5.378;2023-08-30T15:09:25;4.47;;;2.23;;
7957;SDS011;4024;52.172;5.378;2023-08-30T15:11:50;3.47;;;2.13;;